createdAt,value
2018-05-13T00:01:21.614Z,21.10
2018-05-13T00:03:49.439Z,21.10
2018-05-13T00:06:17.630Z,21.10
2018-05-13T00:08:45.066Z,21.00
2018-05-13T00:11:12.497Z,21.00
2018-05-13T00:13:39.919Z,21.00
2018-05-13T00:16:07.360Z,20.90
2018-05-13T00:18:34.784Z,21.00
2018-05-13T00:21:02.979Z,21.00
2018-05-13T00:23:30.398Z,21.00
2018-05-13T00:25:58.650Z,20.90
2018-05-13T00:28:26.088Z,20.90
2018-05-13T00:30:53.544Z,20.80
2018-05-13T00:33:20.963Z,20.70
2018-05-13T00:35:49.178Z,20.70
2018-05-13T00:38:16.630Z,20.70
2018-05-13T00:40:44.055Z,20.80
2018-05-13T00:43:12.247Z,20.80
2018-05-13T00:45:39.687Z,20.80
2018-05-13T00:48:07.891Z,20.80
2018-05-13T00:50:35.531Z,20.80
2018-05-13T00:53:02.864Z,20.80
2018-05-13T00:55:31.067Z,20.80
2018-05-13T00:57:58.542Z,20.80
2018-05-13T01:00:25.971Z,20.90
2018-05-13T01:02:54.158Z,21.00
2018-05-13T01:05:22.303Z,21.00
2018-05-13T01:07:49.723Z,21.00
2018-05-13T01:10:17.180Z,21.00
2018-05-13T01:12:44.615Z,21.00
2018-05-13T01:15:12.044Z,21.10
2018-05-13T01:17:40.239Z,21.00
2018-05-13T01:20:07.689Z,21.00
2018-05-13T01:22:36.612Z,21.20
2018-05-13T01:25:04.047Z,21.20
2018-05-13T01:27:31.492Z,21.10
2018-05-13T01:29:58.915Z,21.10
2018-05-13T01:32:26.362Z,21.20
2018-05-13T01:34:53.787Z,21.10
2018-05-13T01:37:21.220Z,21.10
2018-05-13T01:39:48.651Z,21.20
2018-05-13T01:42:16.121Z,21.30
2018-05-13T01:44:44.323Z,21.40
2018-05-13T01:47:11.750Z,21.40
2018-05-13T01:49:39.951Z,21.20
2018-05-13T01:52:07.391Z,21.20
2018-05-13T01:54:35.586Z,21.20
2018-05-13T01:57:03.027Z,21.10
2018-05-13T01:59:31.379Z,21.10
2018-05-13T02:01:59.600Z,21.10
2018-05-13T02:04:27.028Z,21.10
2018-05-13T02:06:55.228Z,21.10
2018-05-13T02:09:22.654Z,21.10
2018-05-13T02:11:50.851Z,21.10
2018-05-13T02:14:18.282Z,21.10
2018-05-13T02:16:45.719Z,21.10
2018-05-13T02:19:13.153Z,21.00
2018-05-13T02:21:40.591Z,21.00
2018-05-13T02:24:08.021Z,21.00
2018-05-13T02:26:36.224Z,21.00
2018-05-13T02:29:03.659Z,21.00
2018-05-13T02:31:31.860Z,21.00
2018-05-13T02:34:00.088Z,21.00
2018-05-13T02:36:27.518Z,21.10
2018-05-13T02:38:54.938Z,21.00
2018-05-13T02:41:22.363Z,21.00
2018-05-13T02:43:49.791Z,21.10
2018-05-13T02:46:17.238Z,21.00
2018-05-13T02:48:44.706Z,21.00
2018-05-13T02:51:12.140Z,21.00
2018-05-13T02:53:39.567Z,21.10
2018-05-13T02:56:07.764Z,20.80
2018-05-13T02:58:35.205Z,20.80
2018-05-13T03:01:03.396Z,20.90
2018-05-13T03:03:30.834Z,20.80
2018-05-13T03:05:59.043Z,20.80
2018-05-13T03:08:26.473Z,20.80
2018-05-13T03:10:54.661Z,20.80
2018-05-13T03:13:22.104Z,20.80
2018-05-13T03:15:50.291Z,20.80
2018-05-13T03:18:17.852Z,20.80
2018-05-13T03:20:45.279Z,20.80
2018-05-13T03:23:13.532Z,20.70
2018-05-13T03:25:40.944Z,20.70
2018-05-13T03:28:08.370Z,20.70
2018-05-13T03:30:36.576Z,20.40
2018-05-13T03:33:04.014Z,20.40
2018-05-13T03:35:32.211Z,20.50
2018-05-13T03:37:59.666Z,20.50
2018-05-13T03:40:27.084Z,20.60
2018-05-13T03:42:54.904Z,20.60
2018-05-13T03:45:22.335Z,20.50
2018-05-13T03:47:49.771Z,20.70
2018-05-13T03:50:18.019Z,20.60
2018-05-13T03:52:45.449Z,20.80
2018-05-13T03:55:12.887Z,20.90
2018-05-13T03:57:40.324Z,20.80
2018-05-13T04:00:08.529Z,20.80
2018-05-13T04:02:35.972Z,20.80
2018-05-13T04:05:03.401Z,20.80
2018-05-13T04:07:30.835Z,20.70
2018-05-13T04:10:10.003Z,20.90
2018-05-13T04:12:49.075Z,20.80
2018-05-13T04:15:22.786Z,20.80
2018-05-13T04:17:50.229Z,20.60
2018-05-13T04:20:17.675Z,20.80
2018-05-13T04:22:45.112Z,21.00
2018-05-13T04:25:13.315Z,21.00
2018-05-13T04:27:40.739Z,21.00
2018-05-13T04:30:08.931Z,21.30
2018-05-13T04:32:36.379Z,21.30
2018-05-13T04:35:04.571Z,21.40
2018-05-13T04:37:32.007Z,21.40
2018-05-13T04:40:00.198Z,21.60
2018-05-13T04:42:27.631Z,21.50
2018-05-13T04:44:55.051Z,21.70
2018-05-13T04:47:22.471Z,21.70
2018-05-13T04:49:49.918Z,21.70
2018-05-13T04:52:18.115Z,21.90
2018-05-13T04:54:45.548Z,21.90
2018-05-13T04:57:12.991Z,22.10
2018-05-13T04:59:40.414Z,22.10
2018-05-13T05:02:07.840Z,22.00
2018-05-13T05:04:35.943Z,22.20
2018-05-13T05:07:03.370Z,22.20
2018-05-13T05:09:30.798Z,22.10
2018-05-13T05:11:59.063Z,22.10
2018-05-13T05:14:26.505Z,22.10
2018-05-13T05:16:53.936Z,22.30
2018-05-13T05:19:21.360Z,22.40
2018-05-13T05:21:48.795Z,22.50
2018-05-13T05:24:16.228Z,22.50
2018-05-13T05:26:43.657Z,22.50
2018-05-13T05:29:11.092Z,22.40
2018-05-13T05:31:38.528Z,22.40
2018-05-13T05:34:05.951Z,22.50
2018-05-13T05:36:33.386Z,22.50
2018-05-13T05:39:00.844Z,22.50
2018-05-13T05:41:28.270Z,22.60
2018-05-13T05:43:56.467Z,22.60
2018-05-13T05:46:23.890Z,22.60
2018-05-13T05:48:52.094Z,23.00
2018-05-13T05:51:19.618Z,23.00
2018-05-13T05:53:47.060Z,23.10
2018-05-13T05:56:15.271Z,23.20
2018-05-13T05:58:43.478Z,23.20
2018-05-13T06:01:10.899Z,23.20
2018-05-13T06:03:39.178Z,23.30
2018-05-13T06:06:06.684Z,23.30
2018-05-13T06:08:34.126Z,23.40
2018-05-13T06:11:02.111Z,23.50
2018-05-13T06:13:29.547Z,23.60
2018-05-13T06:15:56.968Z,23.70
2018-05-13T06:18:25.163Z,24.30
2018-05-13T06:20:52.598Z,24.30
2018-05-13T06:23:20.200Z,24.50
2018-05-13T06:25:47.643Z,24.70
2018-05-13T06:28:15.075Z,24.90
2018-05-13T06:30:43.278Z,25.30
2018-05-13T06:33:10.711Z,25.30
2018-05-13T06:35:38.907Z,27.80
2018-05-13T06:38:06.391Z,27.70
2018-05-13T06:40:33.827Z,28.90
2018-05-13T06:43:02.181Z,28.90
2018-05-13T06:45:30.381Z,28.70
2018-05-13T06:47:57.865Z,28.60
2018-05-13T06:50:25.300Z,29.70
2018-05-13T06:52:52.722Z,29.50
2018-05-13T06:55:21.096Z,30.40
2018-05-13T06:57:48.515Z,30.30
2018-05-13T07:00:15.953Z,28.90
2018-05-13T07:02:43.447Z,30.20
2018-05-13T07:05:11.613Z,32.50
2018-05-13T07:07:39.034Z,32.40
2018-05-13T07:10:06.477Z,32.20
2018-05-13T07:12:34.661Z,32.70
2018-05-13T07:15:02.276Z,32.70
2018-05-13T07:17:29.700Z,30.50
2018-05-13T07:19:57.136Z,30.30
2018-05-13T07:22:24.559Z,30.70
2018-05-13T07:24:51.998Z,30.80
2018-05-13T07:27:19.418Z,31.60
2018-05-13T07:29:46.899Z,32.20
2018-05-13T07:32:15.048Z,32.70
2018-05-13T07:34:43.366Z,32.60
2018-05-13T07:37:10.805Z,33.30
2018-05-13T07:39:38.235Z,33.10
2018-05-13T07:42:05.665Z,34.20
2018-05-13T07:44:33.109Z,34.80
2018-05-13T07:47:00.528Z,33.90
2018-05-13T07:49:33.757Z,34.40
2018-05-13T07:52:01.186Z,35.70
2018-05-13T07:54:28.616Z,36.30
2018-05-13T07:56:56.039Z,36.20
2018-05-13T07:59:23.475Z,36.00
2018-05-13T08:01:50.906Z,35.80
2018-05-13T08:04:18.805Z,35.10
2018-05-13T08:06:46.234Z,34.20
2018-05-13T08:09:13.665Z,33.70
2018-05-13T08:11:41.899Z,32.50
2018-05-13T08:14:09.346Z,32.40
2018-05-13T08:16:36.787Z,32.00
2018-05-13T08:19:04.222Z,31.80
2018-05-13T08:21:31.666Z,32.10
2018-05-13T08:23:59.855Z,33.00
2018-05-13T08:26:27.285Z,32.90
2018-05-13T08:28:55.479Z,33.20
2018-05-13T08:31:22.922Z,33.20
2018-05-13T08:33:51.120Z,34.30
2018-05-13T08:36:18.551Z,34.20
2018-05-13T08:38:46.744Z,35.10
2018-05-13T08:41:14.179Z,35.20
2018-05-13T08:43:42.371Z,36.90
2018-05-13T08:46:09.803Z,37.20
2018-05-13T08:48:37.284Z,36.50
2018-05-13T08:51:04.685Z,36.90
2018-05-13T08:53:32.092Z,36.90
2018-05-13T08:56:00.288Z,36.70
2018-05-13T08:58:27.719Z,36.70
2018-05-13T09:00:55.914Z,37.00
2018-05-13T09:03:23.415Z,36.90
2018-05-13T09:05:50.834Z,36.80
2018-05-13T09:08:18.336Z,36.10
2018-05-13T09:10:47.055Z,36.50
2018-05-13T09:13:15.266Z,37.20
2018-05-13T09:15:42.700Z,37.30
2018-05-13T09:18:10.887Z,37.70
2018-05-13T09:20:38.911Z,37.70
2018-05-13T09:23:07.026Z,37.40
2018-05-13T09:25:34.455Z,37.40
2018-05-13T09:28:03.281Z,37.70
2018-05-13T09:30:30.750Z,37.70
2018-05-13T09:32:58.297Z,37.20
2018-05-13T09:35:25.640Z,36.40
2018-05-13T09:37:53.062Z,35.60
2018-05-13T09:40:20.586Z,36.90
2018-05-13T09:42:48.012Z,36.90
2018-05-13T09:45:16.220Z,36.70
2018-05-13T09:47:43.648Z,36.70
2018-05-13T09:50:11.083Z,37.40
2018-05-13T09:52:38.512Z,37.70
2018-05-13T09:55:05.948Z,37.80
2018-05-13T09:57:33.386Z,37.20
2018-05-13T10:00:00.819Z,35.70
2018-05-13T10:02:29.025Z,34.40
2018-05-13T10:04:56.443Z,34.30
2018-05-13T10:07:24.650Z,34.50
2018-05-13T10:09:52.067Z,34.40
2018-05-13T10:12:19.501Z,33.70
2018-05-13T10:14:46.932Z,33.10
2018-05-13T10:17:14.377Z,32.70
2018-05-13T10:19:41.884Z,32.70
2018-05-13T10:22:09.316Z,32.20
2018-05-13T10:24:36.771Z,32.30
2018-05-13T10:27:04.198Z,32.40
2018-05-13T10:29:31.626Z,31.60
2018-05-13T10:31:59.054Z,32.10
2018-05-13T10:34:26.487Z,32.60
2018-05-13T10:36:54.432Z,31.00
2018-05-13T10:39:22.787Z,32.40
2018-05-13T10:41:50.219Z,32.30
2018-05-13T10:44:17.647Z,32.60
2018-05-13T10:46:45.116Z,33.20
2018-05-13T10:49:13.288Z,30.90
2018-05-13T10:51:40.716Z,30.90
2018-05-13T10:54:08.925Z,29.30
2018-05-13T10:56:36.433Z,28.30
2018-05-13T10:59:03.845Z,28.40
2018-05-13T11:01:31.289Z,28.40
2018-05-13T11:03:58.952Z,26.10
2018-05-13T11:06:26.369Z,26.30
2018-05-13T11:18:47.696Z,24.00
2018-05-13T11:21:15.159Z,24.00
2018-05-13T11:23:42.591Z,25.30
2018-05-13T11:26:10.780Z,26.30
2018-05-13T11:28:38.210Z,26.20
2018-05-13T11:31:06.403Z,25.90
2018-05-13T11:33:33.850Z,25.90
2018-05-13T11:36:03.060Z,25.20
2018-05-13T11:38:30.491Z,25.10
2018-05-13T11:40:58.709Z,24.60
2018-05-13T11:43:26.143Z,24.50
2018-05-13T11:45:53.652Z,25.00
2018-05-13T11:48:21.014Z,24.30
2018-05-13T11:50:48.440Z,24.50
2018-05-13T11:53:15.933Z,23.90
2018-05-13T11:55:43.366Z,23.40
2018-05-13T11:58:10.813Z,22.70
2018-05-13T12:00:38.248Z,22.30
2018-05-13T12:03:05.675Z,22.40
2018-05-13T12:05:33.116Z,22.30
2018-05-13T12:08:00.536Z,22.50
2018-05-13T12:10:27.967Z,22.60
2018-05-13T12:12:56.169Z,21.60
2018-05-13T12:15:23.595Z,21.60
2018-05-13T12:17:51.862Z,21.80
2018-05-13T12:20:20.050Z,21.60
2018-05-13T12:22:48.242Z,21.60
2018-05-13T12:25:15.670Z,21.50
2018-05-13T12:27:43.976Z,21.60
2018-05-13T12:30:11.413Z,21.60
2018-05-13T12:32:39.612Z,20.90
2018-05-13T12:35:07.123Z,20.80
2018-05-13T12:37:35.320Z,21.20
2018-05-13T12:40:03.087Z,21.20
2018-05-13T12:42:31.295Z,21.40
2018-05-13T12:44:58.715Z,21.40
2018-05-13T12:47:26.915Z,21.00
2018-05-13T12:49:54.348Z,21.00
2018-05-13T12:52:22.664Z,21.20
2018-05-13T12:54:50.091Z,21.10
2018-05-13T12:57:18.326Z,21.30
2018-05-13T12:59:45.751Z,21.20
2018-05-13T13:02:13.212Z,21.30
2018-05-13T13:04:40.643Z,21.10
2018-05-13T13:07:08.230Z,21.00
2018-05-13T13:09:35.695Z,21.30
2018-05-13T13:12:03.299Z,21.60
2018-05-13T13:14:31.520Z,21.00
2018-05-13T13:16:58.950Z,21.00
2018-05-13T13:19:27.149Z,21.20
2018-05-13T13:21:54.596Z,21.20
2018-05-13T13:24:22.086Z,21.20
2018-05-13T13:26:49.511Z,20.70
2018-05-13T13:29:16.956Z,20.70
2018-05-13T13:31:45.138Z,20.90
2018-05-13T13:34:12.579Z,20.80
2018-05-13T13:36:40.866Z,21.10
2018-05-13T13:39:08.232Z,21.10
2018-05-13T13:41:36.429Z,20.80
2018-05-13T13:44:03.857Z,20.80
2018-05-13T13:46:31.287Z,21.10
2018-05-13T13:48:58.716Z,21.30
2018-05-13T13:51:26.198Z,21.30
2018-05-13T13:53:53.631Z,21.00
2018-05-13T13:56:21.083Z,20.80
2018-05-13T13:58:48.526Z,20.50
2018-05-13T14:01:15.992Z,20.60
2018-05-13T14:03:43.472Z,20.60
2018-05-13T14:06:10.899Z,20.80
2018-05-13T14:08:38.335Z,21.00
2018-05-13T14:11:05.842Z,21.00
2018-05-13T14:13:33.282Z,21.20
2018-05-13T14:16:00.721Z,21.40
2018-05-13T14:18:28.166Z,20.90
2018-05-13T14:20:55.620Z,20.70
2018-05-13T14:23:23.933Z,20.60
2018-05-13T14:25:51.380Z,20.60
2018-05-13T14:28:18.810Z,20.70
2018-05-13T14:30:46.324Z,20.90
2018-05-13T14:33:13.763Z,21.20
2018-05-13T14:35:41.238Z,21.00
2018-05-13T14:38:08.733Z,20.80
2018-05-13T14:40:36.149Z,20.70
2018-05-13T14:43:03.749Z,21.00
2018-05-13T14:45:32.059Z,20.30
2018-05-13T14:47:59.419Z,20.30
2018-05-13T14:50:26.886Z,20.90
2018-05-13T14:52:54.597Z,21.00
2018-05-13T14:55:22.203Z,20.60
2018-05-13T14:57:49.610Z,21.10
2018-05-13T15:00:17.132Z,21.40
2018-05-13T15:02:44.582Z,21.70
2018-05-13T15:05:12.539Z,22.00
2018-05-13T15:07:39.965Z,22.10
2018-05-13T15:10:08.202Z,22.20
2018-05-13T15:12:35.688Z,22.20
2018-05-13T15:15:03.612Z,22.10
2018-05-13T15:17:31.074Z,22.20
2018-05-13T15:19:58.524Z,22.00
2018-05-13T15:22:31.671Z,21.90
2018-05-13T15:24:59.104Z,22.00
2018-05-13T15:27:26.542Z,22.10
2018-05-13T15:29:53.997Z,22.10
2018-05-13T15:32:21.454Z,22.10
2018-05-13T15:34:48.887Z,22.10
2018-05-13T15:37:16.394Z,22.10
2018-05-13T15:39:44.562Z,22.10
2018-05-13T15:42:12.008Z,22.10
2018-05-13T15:44:39.457Z,22.10
2018-05-13T15:47:06.905Z,22.10
2018-05-13T15:49:34.338Z,22.00
2018-05-13T15:52:03.462Z,21.90
2018-05-13T15:54:31.665Z,21.80
2018-05-13T15:56:59.099Z,21.70
2018-05-13T15:59:26.563Z,21.50
2018-05-13T16:01:54.034Z,20.70
2018-05-13T16:04:21.495Z,21.00
2018-05-13T16:06:48.923Z,21.30
2018-05-13T16:09:16.377Z,21.40
2018-05-13T16:11:44.047Z,21.40
2018-05-13T16:14:11.483Z,21.30
2018-05-13T16:16:38.979Z,21.20
2018-05-13T16:19:06.514Z,21.50
2018-05-13T16:21:33.859Z,21.50
2018-05-13T16:24:01.342Z,21.60
2018-05-13T16:26:28.779Z,21.60
2018-05-13T16:28:56.207Z,21.60
2018-05-13T16:31:24.588Z,21.80
2018-05-13T16:33:53.750Z,22.10
2018-05-13T16:36:21.228Z,22.10
2018-05-13T16:38:48.656Z,22.30
2018-05-13T16:41:16.111Z,22.50
2018-05-13T16:43:43.568Z,22.60
2018-05-13T16:46:11.761Z,22.70
2018-05-13T16:48:39.185Z,22.80
2018-05-13T16:51:06.623Z,22.70
2018-05-13T16:53:34.057Z,22.70
2018-05-13T16:56:02.258Z,22.30
2018-05-13T16:58:29.684Z,22.30
2018-05-13T17:00:57.116Z,22.30
2018-05-13T17:03:24.538Z,22.40
2018-05-13T17:05:51.989Z,22.30
2018-05-13T17:08:19.430Z,22.30
2018-05-13T17:10:47.655Z,22.40
2018-05-13T17:13:15.858Z,22.30
2018-05-13T17:15:43.381Z,22.40
2018-05-13T17:18:10.820Z,22.20
2018-05-13T17:20:38.261Z,22.30
2018-05-13T17:23:06.452Z,22.00
2018-05-13T17:25:33.882Z,22.00
2018-05-13T17:28:02.074Z,21.80
2018-05-13T17:30:29.731Z,21.80
2018-05-13T17:32:57.166Z,21.80
2018-05-13T17:35:25.370Z,21.80
2018-05-13T17:37:52.799Z,21.80
2018-05-13T17:40:20.311Z,21.80
2018-05-13T17:42:47.752Z,22.00
2018-05-13T17:45:15.183Z,22.10
2018-05-13T17:47:43.407Z,22.30
2018-05-13T17:50:10.923Z,22.30
2018-05-13T17:52:39.130Z,22.40
2018-05-13T17:55:06.598Z,22.40
2018-05-13T17:57:34.092Z,22.30
2018-05-13T18:00:01.515Z,22.30
2018-05-13T18:02:29.017Z,22.20
2018-05-13T18:04:56.381Z,22.20
2018-05-13T18:07:24.597Z,22.10
2018-05-13T18:09:52.027Z,22.10
2018-05-13T18:12:19.461Z,22.10
2018-05-13T18:14:47.656Z,22.10
2018-05-13T18:17:15.082Z,22.10
2018-05-13T18:19:42.520Z,21.70
2018-05-13T18:22:09.971Z,21.60
2018-05-13T18:24:37.420Z,21.60
2018-05-13T18:27:04.831Z,21.50
2018-05-13T18:29:33.028Z,21.40
2018-05-13T18:32:00.464Z,21.40
2018-05-13T18:34:28.672Z,21.50
2018-05-13T18:36:56.119Z,21.40
2018-05-13T18:39:23.545Z,21.30
2018-05-13T18:41:51.796Z,21.20
2018-05-13T18:44:19.226Z,21.10
2018-05-13T18:46:46.663Z,20.80
2018-05-13T18:49:14.123Z,20.70
2018-05-13T18:51:41.531Z,20.70
2018-05-13T18:54:08.948Z,20.70
2018-05-13T18:56:36.391Z,20.60
2018-05-13T18:59:04.122Z,20.50
2018-05-13T19:01:32.265Z,20.30
2018-05-13T19:03:59.676Z,20.30
2018-05-13T19:06:27.955Z,20.30
2018-05-13T19:08:55.358Z,20.30
2018-05-13T19:11:22.789Z,20.10
2018-05-13T19:13:50.385Z,20.00
2018-05-13T19:16:17.897Z,20.10
2018-05-13T19:18:45.321Z,20.00
2018-05-13T19:21:12.816Z,20.00
2018-05-13T19:23:40.239Z,19.70
2018-05-13T19:26:07.796Z,19.90
2018-05-13T19:28:35.218Z,19.90
2018-05-13T19:31:02.643Z,19.80
2018-05-13T19:33:30.069Z,20.00
2018-05-13T19:35:57.539Z,19.90
2018-05-13T19:38:24.961Z,19.70
2018-05-13T19:40:52.381Z,20.00
2018-05-13T19:43:19.861Z,19.90
2018-05-13T19:45:48.014Z,20.00
2018-05-13T19:48:16.284Z,19.90
2018-05-13T19:50:44.460Z,20.00
2018-05-13T19:53:11.952Z,20.00
2018-05-13T19:55:39.380Z,20.10
2018-05-13T19:58:06.868Z,20.20
2018-05-13T20:00:34.310Z,20.30
2018-05-13T20:03:02.030Z,20.40
2018-05-13T20:05:29.394Z,20.40
2018-05-13T20:07:57.604Z,20.50
2018-05-13T20:10:25.036Z,20.50
2018-05-13T20:12:53.239Z,20.70
2018-05-13T20:15:20.684Z,20.60
2018-05-13T20:17:48.170Z,20.70
2018-05-13T20:20:15.612Z,20.60
2018-05-13T20:22:55.011Z,20.60
2018-05-13T20:25:23.221Z,20.50
2018-05-13T20:27:50.847Z,20.40
2018-05-13T20:30:19.043Z,20.80
2018-05-13T20:32:46.470Z,20.80
2018-05-13T20:35:13.896Z,20.90
2018-05-13T20:37:41.331Z,20.90
2018-05-13T20:40:09.266Z,21.00
2018-05-13T20:42:37.670Z,20.70
2018-05-13T20:45:05.100Z,20.70
2018-05-13T20:47:33.308Z,20.40
2018-05-13T20:50:00.731Z,20.40
2018-05-13T20:52:28.939Z,20.10
2018-05-13T20:54:56.373Z,20.10
2018-05-13T20:57:24.576Z,20.10
2018-05-13T20:59:52.035Z,20.10
2018-05-13T21:02:19.475Z,20.10
2018-05-13T21:04:46.975Z,20.30
2018-05-13T21:07:14.395Z,20.30
2018-05-13T21:09:41.824Z,20.30
2018-05-13T21:12:10.028Z,20.60
2018-05-13T21:14:37.490Z,20.60
2018-05-13T21:17:04.965Z,20.20
2018-05-13T21:19:32.528Z,20.10
2018-05-13T21:22:00.176Z,20.00
2018-05-13T21:24:27.800Z,20.30
2018-05-13T21:26:55.352Z,20.40
2018-05-13T21:29:23.715Z,20.10
2018-05-13T21:31:52.937Z,20.10
2018-05-13T21:34:21.143Z,20.30
2018-05-13T21:36:48.568Z,20.30
2018-05-13T21:39:16.968Z,20.50
2018-05-13T21:41:44.417Z,20.40
2018-05-13T21:44:12.884Z,20.50
2018-05-13T21:46:41.261Z,20.50
2018-05-13T21:49:09.634Z,20.40
2018-05-13T21:51:37.289Z,20.40
2018-05-13T21:54:05.680Z,20.20
2018-05-13T21:56:34.015Z,20.30
2018-05-13T21:59:01.671Z,20.20
2018-05-13T22:01:29.354Z,20.30
2018-05-13T22:03:56.989Z,20.20
2018-05-13T22:06:24.579Z,20.30
2018-05-13T22:08:52.166Z,20.30
2018-05-13T22:11:20.517Z,20.30
2018-05-13T22:13:48.165Z,20.30
2018-05-13T22:16:15.741Z,20.40
2018-05-13T22:18:43.353Z,20.40
2018-05-13T22:21:10.952Z,20.40
2018-05-13T22:23:38.577Z,20.40
2018-05-13T22:26:06.163Z,20.60
2018-05-13T22:28:33.855Z,20.20
2018-05-13T22:31:01.405Z,20.10
2018-05-13T22:33:28.921Z,20.10
2018-05-13T22:35:57.123Z,20.20
2018-05-13T22:38:24.607Z,20.20
2018-05-13T22:40:52.285Z,20.40
2018-05-13T22:43:19.903Z,20.40
2018-05-13T22:45:47.471Z,20.30
2018-05-13T22:48:14.985Z,20.30
2018-05-13T22:50:43.192Z,20.20
2018-05-13T22:53:10.618Z,20.20
2018-05-13T22:55:38.836Z,20.10
2018-05-13T22:58:06.266Z,20.10
2018-05-13T23:00:33.691Z,20.20
2018-05-13T23:03:01.887Z,20.20
2018-05-13T23:05:30.088Z,20.20
2018-05-13T23:07:57.515Z,20.20
2018-05-13T23:10:25.706Z,20.40
2018-05-13T23:12:53.226Z,20.40
2018-05-13T23:15:20.755Z,20.40
2018-05-13T23:17:48.204Z,20.40
2018-05-13T23:20:15.627Z,20.40
2018-05-13T23:22:43.819Z,20.30
2018-05-13T23:25:11.306Z,20.30
2018-05-13T23:27:38.774Z,20.30
2018-05-13T23:30:06.213Z,20.30
2018-05-13T23:32:34.644Z,20.30
2018-05-13T23:35:02.158Z,20.30
2018-05-13T23:37:29.582Z,20.40
2018-05-13T23:39:57.017Z,20.40
2018-05-13T23:42:24.547Z,20.50
2018-05-13T23:44:52.083Z,20.50
2018-05-13T23:47:19.546Z,20.50
2018-05-13T23:49:47.003Z,20.50
2018-05-13T23:52:14.435Z,20.50
2018-05-13T23:54:41.863Z,20.60
2018-05-13T23:57:09.291Z,20.60
2018-05-13T23:59:36.731Z,20.60
